Time;durP1;ratioP1;P1;durP2;ratioP2;P2;SDS_P1;SDS_P2;PMS_P1;PMS_P2;Temp;Humidity;BMP_temperature;BMP_pressure;BME280_temperature;BME280_humidity;BME280_pressure;Samples;Min_cycle;Max_cycle;Signal;HPM_P1;HPM_P2
2022/10/23 00:00:03;;;;;;;9.05;2.38;;;;;;;;;;5020728;28;20110;-76
2022/10/23 00:02:52;;;;;;;5.32;2.80;;;;;;;;;;5029886;28;20067;-76
2022/10/23 00:05:39;;;;;;;6.82;2.45;;;;;;;;;;5021195;28;20108;-76
2022/10/23 00:08:24;;;;;;;8.90;3.35;;;;;;;;;;5019045;28;20379;-75
2022/10/23 00:11:10;;;;;;;8.25;2.97;;;;;;;;;;5024054;28;20065;-74
2022/10/23 00:13:58;;;;;;;10.75;3.33;;;;;;;;;;5017673;28;20130;-76
2022/10/23 00:16:43;;;;;;;10.25;3.05;;;;;;;;;;5013309;28;20029;-68
2022/10/23 00:19:29;;;;;;;9.35;2.47;;;;;;;;;;5024794;28;20036;-66
2022/10/23 00:22:14;;;;;;;8.68;2.53;;;;;;;;;;5022973;28;20033;-67
2022/10/23 00:24:59;;;;;;;6.93;3.08;;;;;;;;;;5005850;28;20052;-66
2022/10/23 00:27:45;;;;;;;6.15;2.35;;;;;;;;;;5027090;28;20029;-69
2022/10/23 00:30:30;;;;;;;4.13;2.15;;;;;;;;;;5028080;28;20091;-68
2022/10/23 00:33:15;;;;;;;8.52;2.58;;;;;;;;;;5022475;28;20137;-76
2022/10/23 00:36:02;;;;;;;10.07;2.83;;;;;;;;;;5031371;28;20116;-68
2022/10/23 00:38:48;;;;;;;8.90;2.50;;;;;;;;;;5025408;28;20120;-68
2022/10/23 00:41:33;;;;;;;7.03;2.17;;;;;;;;;;5031791;28;20533;-68
2022/10/23 00:44:18;;;;;;;9.15;2.42;;;;;;;;;;5023081;28;20614;-67
2022/10/23 00:47:04;;;;;;;8.98;2.00;;;;;;;;;;5019794;28;20486;-66
2022/10/23 00:49:49;;;;;;;8.40;2.40;;;;;;;;;;5022705;28;20488;-67
2022/10/23 00:52:36;;;;;;;6.50;2.50;;;;;;;;;;5030320;28;20376;-70
2022/10/23 00:55:22;;;;;;;8.90;2.53;;;;;;;;;;5018510;28;20087;-71
2022/10/23 00:58:07;;;;;;;9.38;2.45;;;;;;;;;;5026090;28;20084;-70
2022/10/23 01:00:53;;;;;;;12.65;3.13;;;;;;;;;;5032325;28;20037;-72
2022/10/23 01:03:39;;;;;;;5.35;2.40;;;;;;;;;;5020966;28;20416;-71
2022/10/23 01:06:24;;;;;;;5.53;2.65;;;;;;;;;;5025613;28;20468;-72
2022/10/23 01:09:27;;;;;;;11.77;2.90;;;;;;;;;;5025456;28;20036;-77
2022/10/23 01:12:25;;;;;;;8.93;3.25;;;;;;;;;;5027443;28;20035;-79
2022/10/23 01:15:13;;;;;;;11.20;3.17;;;;;;;;;;5028330;28;20128;-76
2022/10/23 01:18:15;;;;;;;11.35;2.55;;;;;;;;;;5027543;28;20538;-76
2022/10/23 01:21:19;;;;;;;7.55;2.78;;;;;;;;;;5014038;28;20041;-77
2022/10/23 01:24:08;;;;;;;5.05;2.30;;;;;;;;;;5013148;28;20049;-78
2022/10/23 01:27:01;;;;;;;10.48;2.83;;;;;;;;;;5027240;28;20043;-68
2022/10/23 01:29:52;;;;;;;11.13;2.17;;;;;;;;;;5025020;28;20033;-70
2022/10/23 01:32:48;;;;;;;4.28;1.90;;;;;;;;;;5023639;28;20033;-70
2022/10/23 01:35:36;;;;;;;14.18;3.20;;;;;;;;;;5013976;28;20033;-73
2022/10/23 01:38:34;;;;;;;8.18;2.03;;;;;;;;;;5012225;28;20112;-71
2022/10/23 01:41:28;;;;;;;5.45;3.10;;;;;;;;;;5022541;28;20049;-72
2022/10/23 01:44:23;;;;;;;7.55;2.25;;;;;;;;;;5005395;28;20131;-70
2022/10/23 01:47:09;;;;;;;9.43;2.20;;;;;;;;;;5032461;28;20065;-70
2022/10/23 01:49:56;;;;;;;6.72;2.28;;;;;;;;;;5029927;28;20044;-76
2022/10/23 01:52:41;;;;;;;7.70;2.70;;;;;;;;;;5027309;28;20033;-76
2022/10/23 01:55:27;;;;;;;5.35;2.00;;;;;;;;;;5030389;28;20532;-76
2022/10/23 01:58:13;;;;;;;7.65;2.00;;;;;;;;;;5028333;28;20029;-76
2022/10/23 02:01:00;;;;;;;6.07;2.22;;;;;;;;;;5017636;28;20036;-74
2022/10/23 02:03:46;;;;;;;5.95;2.30;;;;;;;;;;5030659;28;20036;-68
2022/10/23 02:06:32;;;;;;;13.32;3.28;;;;;;;;;;5021495;28;20043;-68
2022/10/23 02:09:17;;;;;;;5.43;2.55;;;;;;;;;;5018684;28;20128;-67
2022/10/23 02:12:05;;;;;;;10.15;2.10;;;;;;;;;;5023733;28;20042;-68
2022/10/23 02:14:57;;;;;;;6.47;1.92;;;;;;;;;;5027012;28;20591;-67
2022/10/23 02:17:53;;;;;;;9.20;2.65;;;;;;;;;;5011701;28;20043;-70
2022/10/23 02:20:40;;;;;;;20.85;2.70;;;;;;;;;;5034273;28;20037;-66
2022/10/23 02:23:58;;;;;;;9.55;2.15;;;;;;;;;;5034765;28;20033;-73
2022/10/23 02:26:51;;;;;;;4.30;1.67;;;;;;;;;;4986714;28;20072;-76
2022/10/23 02:29:39;;;;;;;4.80;2.15;;;;;;;;;;5025971;28;20037;-77
2022/10/23 02:32:26;;;;;;;6.90;1.92;;;;;;;;;;5042868;28;20033;-76
2022/10/23 02:35:12;;;;;;;8.90;2.42;;;;;;;;;;5029306;28;20045;-76
2022/10/23 02:37:58;;;;;;;12.05;2.97;;;;;;;;;;5020716;28;20032;-76
2022/10/23 02:40:44;;;;;;;11.35;2.47;;;;;;;;;;5024703;28;20085;-71
2022/10/23 02:43:34;;;;;;;10.23;2.15;;;;;;;;;;5027832;28;20094;-67
2022/10/23 02:46:24;;;;;;;7.28;1.55;;;;;;;;;;5011896;28;20032;-67
2022/10/23 02:49:15;;;;;;;5.57;2.20;;;;;;;;;;5024912;28;20044;-67
2022/10/23 02:52:07;;;;;;;6.72;2.05;;;;;;;;;;5029289;28;20574;-69
2022/10/23 02:55:00;;;;;;;3.83;1.83;;;;;;;;;;5032454;28;20506;-70
2022/10/23 02:57:46;;;;;;;3.70;1.73;;;;;;;;;;5025255;28;20651;-68
2022/10/23 03:00:31;;;;;;;5.07;1.90;;;;;;;;;;5032695;28;20035;-77
2022/10/23 03:03:19;;;;;;;6.20;2.08;;;;;;;;;;5017281;28;20037;-75
2022/10/23 03:06:04;;;;;;;6.95;2.00;;;;;;;;;;5025998;28;20041;-76
2022/10/23 03:09:05;;;;;;;3.38;1.88;;;;;;;;;;5017916;28;20033;-75
2022/10/23 03:11:50;;;;;;;5.22;2.00;;;;;;;;;;5028133;28;20760;-74
2022/10/23 03:14:36;;;;;;;3.30;1.88;;;;;;;;;;5024713;28;20440;-75
2022/10/23 03:17:21;;;;;;;7.05;2.00;;;;;;;;;;5031741;28;20035;-76
2022/10/23 03:20:07;;;;;;;4.72;2.28;;;;;;;;;;5028834;28;20036;-76
2022/10/23 03:22:52;;;;;;;6.63;1.80;;;;;;;;;;5028327;28;20022;-77
2022/10/23 03:25:37;;;;;;;8.45;1.90;;;;;;;;;;5013773;28;20080;-76
2022/10/23 03:28:22;;;;;;;6.68;2.17;;;;;;;;;;5033449;28;20128;-75
2022/10/23 03:31:08;;;;;;;3.75;1.90;;;;;;;;;;5021273;28;20036;-75
2022/10/23 03:33:53;;;;;;;7.00;2.13;;;;;;;;;;5012935;28;20029;-76
2022/10/23 03:36:38;;;;;;;7.18;1.70;;;;;;;;;;5028716;28;20044;-76
2022/10/23 03:39:23;;;;;;;10.18;2.08;;;;;;;;;;5027288;28;20056;-66
2022/10/23 03:42:09;;;;;;;3.78;1.65;;;;;;;;;;5018632;28;20045;-66
2022/10/23 03:44:54;;;;;;;5.50;1.70;;;;;;;;;;5027786;28;20030;-68
2022/10/23 03:47:40;;;;;;;7.13;2.65;;;;;;;;;;5019833;28;20358;-67
2022/10/23 03:50:25;;;;;;;4.25;2.95;;;;;;;;;;5022916;28;20095;-68
2022/10/23 03:53:10;;;;;;;3.67;1.83;;;;;;;;;;5020805;28;20049;-66
2022/10/23 03:55:55;;;;;;;7.57;1.63;;;;;;;;;;5024030;28;20468;-70
2022/10/23 03:58:40;;;;;;;2.50;1.50;;;;;;;;;;5027721;28;20033;-76
2022/10/23 04:01:26;;;;;;;5.78;1.95;;;;;;;;;;5012670;28;20041;-75
2022/10/23 04:04:11;;;;;;;4.22;1.95;;;;;;;;;;5015585;28;20045;-75
2022/10/23 04:06:56;;;;;;;4.90;2.15;;;;;;;;;;5026798;28;20032;-75
2022/10/23 04:09:42;;;;;;;10.88;1.92;;;;;;;;;;5023825;28;20032;-75
2022/10/23 04:12:27;;;;;;;4.32;1.52;;;;;;;;;;5023714;28;20036;-73
2022/10/23 04:15:12;;;;;;;8.88;1.80;;;;;;;;;;5024339;28;20029;-67
2022/10/23 04:17:57;;;;;;;6.05;1.83;;;;;;;;;;5026765;28;20044;-67
2022/10/23 04:20:43;;;;;;;4.05;1.65;;;;;;;;;;5020022;28;20472;-68
2022/10/23 04:23:28;;;;;;;6.95;1.80;;;;;;;;;;5017471;28;20044;-67
2022/10/23 04:26:13;;;;;;;4.28;1.42;;;;;;;;;;5025486;28;20033;-67
2022/10/23 04:28:59;;;;;;;20.27;2.22;;;;;;;;;;5018335;28;20183;-67
2022/10/23 04:31:44;;;;;;;11.65;3.58;;;;;;;;;;5026992;28;20033;-77
2022/10/23 04:34:29;;;;;;;4.30;1.73;;;;;;;;;;5020843;28;20033;-68
2022/10/23 04:37:14;;;;;;;4.85;2.05;;;;;;;;;;5031150;28;20037;-68
2022/10/23 04:39:59;;;;;;;6.88;1.67;;;;;;;;;;5031505;28;20035;-67
2022/10/23 04:42:45;;;;;;;4.45;2.10;;;;;;;;;;5020292;28;20472;-67
2022/10/23 04:45:30;;;;;;;7.30;1.88;;;;;;;;;;5025350;28;20036;-68
2022/10/23 04:48:15;;;;;;;5.15;1.88;;;;;;;;;;5022444;28;20041;-69
2022/10/23 04:51:02;;;;;;;3.55;2.00;;;;;;;;;;5015854;28;20047;-66
2022/10/23 04:53:47;;;;;;;4.47;1.90;;;;;;;;;;5020945;28;20372;-75
2022/10/23 04:56:32;;;;;;;5.25;1.98;;;;;;;;;;5008058;28;20032;-74
2022/10/23 04:59:18;;;;;;;6.32;2.00;;;;;;;;;;5031545;28;20045;-76
2022/10/23 05:02:03;;;;;;;5.88;1.90;;;;;;;;;;5015496;28;20060;-76
2022/10/23 05:04:49;;;;;;;7.05;2.10;;;;;;;;;;5026669;28;20043;-75
2022/10/23 05:07:34;;;;;;;6.38;1.88;;;;;;;;;;5026141;28;20495;-76
2022/10/23 05:10:20;;;;;;;7.72;2.17;;;;;;;;;;5020621;28;20033;-74
2022/10/23 05:13:05;;;;;;;3.53;1.80;;;;;;;;;;5021711;28;20583;-75
2022/10/23 05:15:50;;;;;;;6.85;1.83;;;;;;;;;;5025269;28;20025;-74
2022/10/23 05:18:43;;;;;;;6.65;1.83;;;;;;;;;;5026272;28;20193;-75
2022/10/23 05:21:30;;;;;;;6.95;2.30;;;;;;;;;;5018122;28;20032;-74
2022/10/23 05:24:15;;;;;;;4.20;2.72;;;;;;;;;;5023740;28;20207;-75
2022/10/23 05:27:00;;;;;;;6.63;1.73;;;;;;;;;;5027582;28;20036;-68
2022/10/23 05:29:45;;;;;;;2.58;1.73;;;;;;;;;;5027116;28;20029;-70
2022/10/23 05:32:31;;;;;;;5.38;1.98;;;;;;;;;;5026187;28;20044;-70
2022/10/23 05:35:20;;;;;;;6.63;1.95;;;;;;;;;;5017799;28;20033;-71
2022/10/23 05:38:06;;;;;;;7.68;2.30;;;;;;;;;;5026179;28;20041;-69
2022/10/23 05:40:51;;;;;;;8.52;1.88;;;;;;;;;;5043785;28;20025;-70
2022/10/23 05:43:37;;;;;;;4.63;1.75;;;;;;;;;;5022768;28;20098;-69
2022/10/23 05:46:22;;;;;;;2.97;1.80;;;;;;;;;;5025444;28;20029;-74
2022/10/23 05:49:08;;;;;;;5.45;1.73;;;;;;;;;;5031312;28;20156;-75
2022/10/23 05:51:53;;;;;;;8.32;2.47;;;;;;;;;;5021818;28;20562;-75
2022/10/23 05:54:38;;;;;;;7.68;1.60;;;;;;;;;;5022522;28;20045;-75
2022/10/23 05:57:23;;;;;;;4.45;2.50;;;;;;;;;;5027819;28;20123;-75
2022/10/23 06:00:09;;;;;;;4.07;1.73;;;;;;;;;;5024458;28;20044;-75
2022/10/23 06:02:54;;;;;;;9.02;2.10;;;;;;;;;;5034476;28;20033;-76
2022/10/23 06:05:39;;;;;;;3.17;1.48;;;;;;;;;;5019202;28;20120;-67
2022/10/23 06:08:25;;;;;;;4.03;2.00;;;;;;;;;;5027622;28;20125;-67
2022/10/23 06:11:11;;;;;;;6.25;1.80;;;;;;;;;;5031653;28;20033;-66
2022/10/23 06:13:56;;;;;;;4.30;1.83;;;;;;;;;;5023184;28;20036;-68
2022/10/23 06:16:42;;;;;;;5.65;1.88;;;;;;;;;;5023978;28;20036;-67
2022/10/23 06:19:27;;;;;;;11.20;2.47;;;;;;;;;;5024217;28;20030;-67
2022/10/23 06:22:12;;;;;;;4.90;2.10;;;;;;;;;;5012485;28;20021;-70
2022/10/23 06:24:57;;;;;;;8.32;2.10;;;;;;;;;;5022792;28;20033;-78
2022/10/23 06:27:42;;;;;;;8.45;2.33;;;;;;;;;;5001773;28;20029;-77
2022/10/23 06:30:28;;;;;;;6.15;2.20;;;;;;;;;;5023032;28;20392;-79
2022/10/23 06:33:13;;;;;;;5.30;2.08;;;;;;;;;;5019870;28;20041;-77
2022/10/23 06:35:58;;;;;;;6.53;2.35;;;;;;;;;;5025275;28;20566;-78
2022/10/23 06:38:43;;;;;;;3.22;1.90;;;;;;;;;;5026179;28;20164;-77
2022/10/23 06:41:29;;;;;;;6.78;2.35;;;;;;;;;;5019982;28;20041;-70
2022/10/23 06:44:14;;;;;;;3.55;1.98;;;;;;;;;;5026543;28;20033;-76
2022/10/23 06:47:00;;;;;;;6.88;2.65;;;;;;;;;;5013017;28;20143;-74
2022/10/23 06:49:46;;;;;;;4.20;1.90;;;;;;;;;;5023819;28;20045;-74
2022/10/23 06:52:31;;;;;;;7.15;1.98;;;;;;;;;;5009743;28;20128;-74
2022/10/23 06:55:17;;;;;;;4.85;2.10;;;;;;;;;;5025718;28;20079;-73
2022/10/23 06:58:02;;;;;;;6.88;2.42;;;;;;;;;;5022644;28;20280;-68
2022/10/23 07:00:47;;;;;;;6.35;2.60;;;;;;;;;;5024587;28;20089;-69
2022/10/23 07:03:33;;;;;;;6.70;2.17;;;;;;;;;;5012253;28;20105;-70
2022/10/23 07:06:18;;;;;;;5.43;1.88;;;;;;;;;;5011224;28;20102;-69
2022/10/23 07:09:03;;;;;;;10.65;3.08;;;;;;;;;;5019278;28;20032;-68
2022/10/23 07:11:49;;;;;;;7.13;2.85;;;;;;;;;;5012810;28;20052;-68
2022/10/23 07:14:34;;;;;;;9.43;2.97;;;;;;;;;;5020890;28;20025;-70
2022/10/23 07:17:19;;;;;;;3.88;1.90;;;;;;;;;;5022292;28;20064;-75
2022/10/23 07:20:04;;;;;;;6.15;2.42;;;;;;;;;;5024832;28;20473;-78
2022/10/23 07:22:53;;;;;;;6.28;1.95;;;;;;;;;;5022010;28;20700;-62
2022/10/23 07:25:39;;;;;;;5.72;2.20;;;;;;;;;;5019952;28;20038;-63
2022/10/23 07:28:24;;;;;;;5.63;2.65;;;;;;;;;;5018488;28;20041;-63
2022/10/23 07:31:09;;;;;;;3.55;2.35;;;;;;;;;;5011302;28;20065;-61
2022/10/23 07:33:55;;;;;;;9.85;2.88;;;;;;;;;;5019592;28;20037;-64
2022/10/23 07:36:40;;;;;;;6.40;2.10;;;;;;;;;;5020680;28;20102;-61
2022/10/23 07:39:25;;;;;;;5.75;1.98;;;;;;;;;;5004351;28;20461;-62
2022/10/23 07:42:10;;;;;;;4.90;2.65;;;;;;;;;;5021500;28;20025;-62
2022/10/23 07:44:56;;;;;;;6.03;2.10;;;;;;;;;;5027719;28;20040;-62
2022/10/23 07:47:41;;;;;;;6.78;1.75;;;;;;;;;;5014319;28;20478;-61
2022/10/23 07:50:26;;;;;;;2.55;1.58;;;;;;;;;;5008473;28;20103;-61
2022/10/23 07:53:22;;;;;;;5.03;1.90;;;;;;;;;;5024115;28;20038;-67
2022/10/23 07:56:28;;;;;;;7.40;2.20;;;;;;;;;;5024084;28;21731;-61
2022/10/23 07:59:13;;;;;;;7.05;2.08;;;;;;;;;;5019649;28;20687;-63
2022/10/23 08:01:59;;;;;;;5.28;1.75;;;;;;;;;;5025591;28;20048;-69
2022/10/23 08:04:47;;;;;;;7.28;2.15;;;;;;;;;;5016581;28;20045;-71
2022/10/23 08:07:32;;;;;;;3.25;2.00;;;;;;;;;;5016933;28;20043;-72
2022/10/23 08:10:17;;;;;;;8.40;3.90;;;;;;;;;;5028618;28;20041;-70
2022/10/23 08:13:02;;;;;;;8.95;5.32;;;;;;;;;;5025377;28;20036;-77
2022/10/23 08:15:49;;;;;;;5.95;2.35;;;;;;;;;;5031043;28;20029;-76
2022/10/23 08:18:34;;;;;;;6.15;2.50;;;;;;;;;;5010586;28;20062;-78
2022/10/23 08:21:20;;;;;;;6.75;1.90;;;;;;;;;;5024159;28;20064;-78
2022/10/23 08:24:05;;;;;;;6.18;1.73;;;;;;;;;;5020865;28;20488;-78
2022/10/23 08:26:50;;;;;;;3.65;1.50;;;;;;;;;;5012891;28;20469;-78
2022/10/23 08:29:35;;;;;;;10.05;1.90;;;;;;;;;;5013926;28;20460;-69
2022/10/23 08:32:21;;;;;;;9.05;2.28;;;;;;;;;;5020528;28;20033;-81
2022/10/23 08:35:06;;;;;;;4.88;1.98;;;;;;;;;;5026230;28;20047;-71
2022/10/23 08:37:51;;;;;;;6.13;1.75;;;;;;;;;;5028254;28;20037;-72
2022/10/23 08:40:36;;;;;;;6.38;1.70;;;;;;;;;;5037399;28;20095;-71
2022/10/23 08:43:34;;;;;;;6.88;1.65;;;;;;;;;;5030075;28;20029;-71
2022/10/23 08:46:22;;;;;;;4.53;1.92;;;;;;;;;;5023206;28;20036;-71
2022/10/23 08:49:07;;;;;;;2.95;1.25;;;;;;;;;;5023942;28;20037;-78
2022/10/23 08:51:55;;;;;;;3.72;1.63;;;;;;;;;;5026339;28;20045;-71
2022/10/23 08:54:40;;;;;;;5.10;1.63;;;;;;;;;;5017513;28;20033;-70
2022/10/23 08:57:32;;;;;;;2.70;1.42;;;;;;;;;;5004901;28;20120;-70
2022/10/23 09:00:17;;;;;;;6.05;1.50;;;;;;;;;;5023055;28;20380;-70
2022/10/23 09:03:04;;;;;;;9.38;2.85;;;;;;;;;;5019800;28;20108;-69
2022/10/23 09:06:12;;;;;;;5.72;1.60;;;;;;;;;;5021033;28;20041;-71
2022/10/23 09:09:14;;;;;;;5.90;1.80;;;;;;;;;;5027003;28;20495;-67
2022/10/23 09:12:07;;;;;;;9.93;1.90;;;;;;;;;;5019890;28;20090;-76
2022/10/23 09:14:56;;;;;;;3.13;1.50;;;;;;;;;;5023715;28;20120;-77
2022/10/23 09:17:42;;;;;;;6.53;1.58;;;;;;;;;;5029513;28;20033;-78
2022/10/23 09:20:30;;;;;;;3.45;1.58;;;;;;;;;;5020792;28;20414;-77
2022/10/23 09:23:17;;;;;;;4.93;1.50;;;;;;;;;;5018934;28;20057;-77
2022/10/23 09:26:06;;;;;;;6.25;1.13;;;;;;;;;;5019190;28;20025;-84
2022/10/23 09:28:55;;;;;;;4.35;1.20;;;;;;;;;;5031119;28;20033;-84
2022/10/23 09:31:48;;;;;;;1.83;1.10;;;;;;;;;;5020865;28;20636;-83
2022/10/23 09:34:33;;;;;;;3.97;1.30;;;;;;;;;;5020945;28;20037;-85
2022/10/23 09:37:23;;;;;;;3.67;1.30;;;;;;;;;;5022211;28;20103;-82
2022/10/23 09:40:08;;;;;;;;;;;;;;;;;;5035607;28;20064;-84
2022/10/23 09:42:55;;;;;;;6.65;1.55;;;;;;;;;;5005844;28;19955;-85
2022/10/23 09:45:41;;;;;;;5.38;1.60;;;;;;;;;;5017271;28;20048;-70
2022/10/23 09:48:26;;;;;;;7.60;2.85;;;;;;;;;;5024224;28;20038;-69
2022/10/23 09:51:19;;;;;;;7.10;2.67;;;;;;;;;;5021110;28;20403;-69
2022/10/23 09:54:11;;;;;;;11.25;2.50;;;;;;;;;;5033172;28;20028;-67
2022/10/23 09:56:58;;;;;;;3.72;1.33;;;;;;;;;;5019948;28;20035;-68
2022/10/23 09:59:49;;;;;;;3.22;1.50;;;;;;;;;;5029263;28;20033;-68
2022/10/23 10:02:35;;;;;;;8.57;1.77;;;;;;;;;;5031605;28;20107;-83
2022/10/23 10:05:29;;;;;;;7.72;1.58;;;;;;;;;;5049725;28;20033;-78
2022/10/23 10:08:33;;;;;;;5.25;1.30;;;;;;;;;;5031709;28;20036;-78
2022/10/23 10:11:22;;;;;;;9.55;1.70;;;;;;;;;;5015943;28;20037;-78
2022/10/23 10:14:34;;;;;;;4.38;1.25;;;;;;;;;;5014709;28;20472;-78
2022/10/23 10:17:29;;;;;;;3.30;1.30;;;;;;;;;;5019021;28;20060;-77
2022/10/23 10:20:28;;;;;;;2.95;1.00;;;;;;;;;;5023318;28;20079;-75
2022/10/23 10:23:26;;;;;;;8.15;1.48;;;;;;;;;;5028128;28;20072;-84
2022/10/23 10:26:14;;;;;;;6.05;1.70;;;;;;;;;;5009861;28;20478;-82
2022/10/23 10:29:06;;;;;;;4.68;1.30;;;;;;;;;;5015469;28;20036;-84
2022/10/23 10:32:12;;;;;;;3.72;0.88;;;;;;;;;;5025037;28;20596;-83
2022/10/23 10:34:57;;;;;;;6.15;1.25;;;;;;;;;;5023495;28;20042;-85
2022/10/23 10:37:54;;;;;;;5.25;1.60;;;;;;;;;;5033486;28;20365;-85
2022/10/23 10:40:51;;;;;;;4.32;2.10;;;;;;;;;;5019313;28;20040;-76
2022/10/23 10:43:45;;;;;;;8.15;2.28;;;;;;;;;;5026156;28;20603;-68
2022/10/23 10:46:39;;;;;;;5.13;1.30;;;;;;;;;;5028057;28;20079;-68
2022/10/23 10:49:25;;;;;;;6.97;1.55;;;;;;;;;;5015919;28;20461;-69
2022/10/23 10:52:29;;;;;;;3.47;1.17;;;;;;;;;;5035311;28;20561;-67
2022/10/23 10:55:14;;;;;;;4.15;1.70;;;;;;;;;;5025845;28;20557;-67
2022/10/23 10:58:19;;;;;;;9.32;1.40;;;;;;;;;;5026009;28;20112;-67
2022/10/23 11:01:12;;;;;;;1.58;0.95;;;;;;;;;;5001209;28;20115;-69
2022/10/23 11:03:57;;;;;;;5.18;1.33;;;;;;;;;;5017093;28;20025;-70
2022/10/23 11:06:44;;;;;;;6.13;1.52;;;;;;;;;;5016513;28;20083;-68
2022/10/23 11:09:30;;;;;;;3.25;1.00;;;;;;;;;;5020441;28;20122;-69
2022/10/23 11:12:18;;;;;;;9.25;1.50;;;;;;;;;;5015353;28;20184;-70
2022/10/23 11:15:10;;;;;;;5.22;1.20;;;;;;;;;;5024909;28;20048;-79
2022/10/23 11:17:57;;;;;;;5.40;1.10;;;;;;;;;;5020526;28;20476;-67
2022/10/23 11:20:49;;;;;;;5.82;1.67;;;;;;;;;;5019863;28;20111;-82
2022/10/23 11:23:42;;;;;;;11.15;1.92;;;;;;;;;;5024704;28;20723;-80
2022/10/23 11:26:27;;;;;;;4.82;1.08;;;;;;;;;;5030763;28;20032;-80
2022/10/23 11:29:34;;;;;;;2.53;1.45;;;;;;;;;;5016678;28;20034;-80
2022/10/23 11:32:52;;;;;;;4.13;2.72;;;;;;;;;;5020046;28;20036;-80
2022/10/23 11:35:44;;;;;;;7.68;2.25;;;;;;;;;;4987058;28;20048;-72
2022/10/23 11:38:29;;;;;;;2.58;1.00;;;;;;;;;;5028545;28;20120;-69
2022/10/23 11:41:17;;;;;;;6.32;1.33;;;;;;;;;;5029296;28;20063;-71
2022/10/23 11:44:03;;;;;;;7.35;1.65;;;;;;;;;;5017267;28;20174;-71
2022/10/23 11:46:58;;;;;;;6.25;1.50;;;;;;;;;;5023083;28;20072;-70
2022/10/23 11:49:43;;;;;;;4.38;1.50;;;;;;;;;;5026063;28;21674;-70
2022/10/23 11:52:28;;;;;;;10.07;1.77;;;;;;;;;;5016734;28;20044;-79
2022/10/23 11:55:18;;;;;;;6.85;1.35;;;;;;;;;;5025445;28;20495;-81
2022/10/23 11:58:03;;;;;;;6.13;1.27;;;;;;;;;;5028054;28;20092;-80
2022/10/23 12:01:09;;;;;;;6.20;1.63;;;;;;;;;;5009717;28;20108;-79
2022/10/23 12:04:01;;;;;;;4.47;1.25;;;;;;;;;;4981708;28;20040;-80
2022/10/23 12:06:48;;;;;;;5.05;1.25;;;;;;;;;;5016018;28;20120;-82
2022/10/23 12:09:37;;;;;;;9.93;1.48;;;;;;;;;;5015906;28;20031;-81
2022/10/23 12:12:28;;;;;;;4.75;1.38;;;;;;;;;;5041798;28;20082;-78
2022/10/23 12:15:18;;;;;;;7.80;1.50;;;;;;;;;;5029642;28;20045;-68
2022/10/23 12:18:12;;;;;;;7.55;1.27;;;;;;;;;;5021839;28;20708;-68
2022/10/23 12:20:58;;;;;;;6.55;1.23;;;;;;;;;;5008850;28;20539;-69
2022/10/23 12:23:52;;;;;;;3.72;1.23;;;;;;;;;;5027105;28;20064;-71
2022/10/23 12:26:53;;;;;;;8.95;1.48;;;;;;;;;;5021477;28;20590;-70
2022/10/23 12:29:45;;;;;;;9.43;1.63;;;;;;;;;;5014456;28;20492;-71
2022/10/23 12:32:33;;;;;;;7.97;1.80;;;;;;;;;;5023813;28;20037;-79
2022/10/23 12:35:27;;;;;;;8.90;1.83;;;;;;;;;;5021781;28;20041;-80
2022/10/23 12:38:13;;;;;;;5.82;1.42;;;;;;;;;;5021078;28;20064;-80
2022/10/23 12:41:08;;;;;;;11.77;3.33;;;;;;;;;;5019231;28;20509;-80
2022/10/23 12:43:56;;;;;;;25.35;9.07;;;;;;;;;;5018204;28;20046;-78
2022/10/23 12:46:45;;;;;;;11.02;3.72;;;;;;;;;;5029357;28;20028;-79
2022/10/23 12:49:32;;;;;;;5.70;2.30;;;;;;;;;;5009728;28;20037;-78
2022/10/23 12:52:19;;;;;;;11.00;2.08;;;;;;;;;;5014781;28;20041;-77
2022/10/23 12:55:12;;;;;;;9.32;1.70;;;;;;;;;;5014701;28;20101;-76
2022/10/23 12:57:57;;;;;;;5.57;1.83;;;;;;;;;;5018260;28;20072;-77
2022/10/23 13:00:49;;;;;;;6.90;1.73;;;;;;;;;;5014971;28;20044;-78
2022/10/23 13:03:34;;;;;;;4.35;1.75;;;;;;;;;;5016030;28;20029;-77
2022/10/23 13:06:20;;;;;;;2.50;1.13;;;;;;;;;;5019666;28;20117;-80
2022/10/23 13:09:12;;;;;;;2.58;1.77;;;;;;;;;;5025239;28;20120;-70
2022/10/23 13:11:59;;;;;;;4.15;1.35;;;;;;;;;;5029064;28;20375;-69
2022/10/23 13:14:56;;;;;;;6.88;1.63;;;;;;;;;;5011032;28;20479;-70
2022/10/23 13:17:46;;;;;;;6.63;1.52;;;;;;;;;;5007749;28;20034;-69
2022/10/23 13:20:34;;;;;;;9.35;2.10;;;;;;;;;;5020189;28;20039;-71
2022/10/23 13:23:32;;;;;;;4.10;1.40;;;;;;;;;;5027498;28;20082;-70
2022/10/23 13:26:23;;;;;;;8.05;1.70;;;;;;;;;;5024990;28;20094;-77
2022/10/23 13:29:26;;;;;;;5.82;1.50;;;;;;;;;;5012800;28;20037;-70
2022/10/23 13:32:20;;;;;;;7.53;2.75;;;;;;;;;;5018486;28;20073;-70
2022/10/23 13:35:19;;;;;;;5.75;1.98;;;;;;;;;;5032341;28;20028;-70
2022/10/23 13:38:07;;;;;;;5.93;1.83;;;;;;;;;;5024674;28;20051;-70
2022/10/23 13:41:00;;;;;;;6.80;2.05;;;;;;;;;;5026940;28;20060;-71
2022/10/23 13:43:46;;;;;;;6.25;1.83;;;;;;;;;;5018808;28;20431;-80
2022/10/23 13:46:31;;;;;;;10.32;1.98;;;;;;;;;;5023634;28;20361;-77
2022/10/23 13:49:17;;;;;;;7.75;2.13;;;;;;;;;;5045632;28;20037;-79
2022/10/23 13:52:02;;;;;;;14.13;2.10;;;;;;;;;;5019006;28;20029;-77
2022/10/23 13:54:48;;;;;;;12.98;2.33;;;;;;;;;;5027615;28;20435;-77
2022/10/23 13:57:33;;;;;;;9.10;2.40;;;;;;;;;;5023831;28;20045;-75
2022/10/23 14:00:19;;;;;;;8.93;2.50;;;;;;;;;;5019361;28;20035;-78
2022/10/23 14:03:04;;;;;;;4.55;2.08;;;;;;;;;;5023341;28;20025;-76
2022/10/23 14:05:50;;;;;;;12.73;2.10;;;;;;;;;;5032934;28;20036;-78
2022/10/23 14:08:35;;;;;;;4.38;1.70;;;;;;;;;;5026788;28;20086;-76
2022/10/23 14:11:20;;;;;;;8.70;1.80;;;;;;;;;;5014983;28;20025;-76
2022/10/23 14:14:06;;;;;;;12.27;2.47;;;;;;;;;;5023779;28;20105;-77
2022/10/23 14:16:52;;;;;;;9.82;2.00;;;;;;;;;;5029491;28;20029;-75
2022/10/23 14:19:37;;;;;;;10.68;2.92;;;;;;;;;;5020947;28;20030;-68
2022/10/23 14:22:22;;;;;;;14.68;2.30;;;;;;;;;;5021777;28;20463;-80
2022/10/23 14:25:07;;;;;;;15.98;2.47;;;;;;;;;;5027092;28;20041;-78
2022/10/23 14:27:53;;;;;;;11.27;2.42;;;;;;;;;;5025329;28;20024;-78
2022/10/23 14:30:38;;;;;;;11.10;2.00;;;;;;;;;;5019515;28;20386;-77
2022/10/23 14:33:23;;;;;;;13.75;2.83;;;;;;;;;;5035764;28;20155;-77
2022/10/23 14:36:09;;;;;;;9.30;2.63;;;;;;;;;;5023822;28;20041;-78
2022/10/23 14:38:55;;;;;;;11.90;4.25;;;;;;;;;;5021334;28;20044;-78
2022/10/23 14:41:40;;;;;;;12.43;3.40;;;;;;;;;;5017187;28;20040;-71
2022/10/23 14:44:26;;;;;;;9.00;2.80;;;;;;;;;;5025514;28;20538;-71
2022/10/23 14:47:11;;;;;;;12.23;3.20;;;;;;;;;;5027942;28;20044;-71
2022/10/23 14:49:56;;;;;;;8.95;2.17;;;;;;;;;;5029337;28;20033;-72
2022/10/23 14:52:41;;;;;;;8.55;2.53;;;;;;;;;;5019537;28;20033;-71
2022/10/23 14:55:27;;;;;;;9.32;2.80;;;;;;;;;;5024893;28;20059;-71
2022/10/23 14:58:12;;;;;;;8.93;3.03;;;;;;;;;;5028389;28;20033;-76
2022/10/23 15:00:58;;;;;;;12.63;3.22;;;;;;;;;;5005473;28;20029;-68
2022/10/23 15:03:43;;;;;;;14.93;2.65;;;;;;;;;;5028344;28;20119;-67
2022/10/23 15:06:28;;;;;;;11.77;2.33;;;;;;;;;;5015649;28;20051;-66
2022/10/23 15:09:14;;;;;;;12.77;2.92;;;;;;;;;;5022101;28;20041;-65
2022/10/23 15:11:59;;;;;;;7.60;2.38;;;;;;;;;;5005228;28;20038;-67
2022/10/23 15:14:44;;;;;;;10.25;3.50;;;;;;;;;;5026012;28;20044;-77
2022/10/23 15:17:31;;;;;;;16.52;2.97;;;;;;;;;;5020768;28;20443;-83
2022/10/23 15:20:16;;;;;;;7.28;2.75;;;;;;;;;;5021543;28;20116;-83
2022/10/23 15:23:01;;;;;;;18.17;3.10;;;;;;;;;;5019273;28;20029;-81
2022/10/23 15:25:57;;;;;;;11.30;3.63;;;;;;;;;;5028493;28;20509;-82
2022/10/23 15:28:42;;;;;;;11.70;3.55;;;;;;;;;;5026392;28;20040;-82
2022/10/23 15:31:27;;;;;;;10.05;3.90;;;;;;;;;;5032720;28;20084;-82
2022/10/23 15:34:15;;;;;;;11.43;4.55;;;;;;;;;;5028213;28;20120;-72
2022/10/23 15:37:00;;;;;;;13.50;4.10;;;;;;;;;;5028245;28;20033;-70
2022/10/23 15:39:45;;;;;;;10.70;3.90;;;;;;;;;;5013758;28;20108;-71
2022/10/23 15:42:31;;;;;;;12.18;4.40;;;;;;;;;;5017057;28;20037;-72
2022/10/23 15:45:16;;;;;;;6.40;2.97;;;;;;;;;;5021642;28;20037;-70
2022/10/23 15:48:01;;;;;;;8.00;2.75;;;;;;;;;;5017349;28;20471;-71
2022/10/23 15:50:46;;;;;;;11.68;3.45;;;;;;;;;;5011093;28;20083;-71
2022/10/23 15:53:32;;;;;;;10.13;3.10;;;;;;;;;;5018097;28;20672;-79
2022/10/23 15:56:17;;;;;;;11.52;3.97;;;;;;;;;;5030286;28;20048;-80
2022/10/23 15:59:02;;;;;;;11.70;3.08;;;;;;;;;;5027526;28;20036;-79
2022/10/23 16:01:48;;;;;;;9.25;3.00;;;;;;;;;;5015064;28;20044;-80
2022/10/23 16:04:34;;;;;;;10.70;2.78;;;;;;;;;;5016652;28;20024;-79
2022/10/23 16:07:19;;;;;;;11.23;2.88;;;;;;;;;;5018688;28;20588;-81
2022/10/23 16:10:05;;;;;;;9.43;3.03;;;;;;;;;;5012605;28;20544;-68
2022/10/23 16:12:50;;;;;;;10.98;3.30;;;;;;;;;;5023060;28;20033;-80
2022/10/23 16:15:36;;;;;;;12.05;2.97;;;;;;;;;;5025117;28;20498;-80
2022/10/23 16:18:21;;;;;;;13.60;2.78;;;;;;;;;;5020302;28;20033;-80
2022/10/23 16:21:07;;;;;;;10.90;3.33;;;;;;;;;;5018805;28;20033;-79
2022/10/23 16:23:53;;;;;;;12.18;3.40;;;;;;;;;;5011215;28;20606;-78
2022/10/23 16:26:39;;;;;;;7.95;2.28;;;;;;;;;;5017788;28;20040;-79
2022/10/23 16:29:25;;;;;;;11.25;2.70;;;;;;;;;;5006111;28;20041;-81
2022/10/23 16:32:10;;;;;;;7.35;2.40;;;;;;;;;;5011735;28;20033;-81
2022/10/23 16:34:55;;;;;;;10.52;3.33;;;;;;;;;;5026004;28;20044;-81
2022/10/23 16:37:41;;;;;;;6.18;2.70;;;;;;;;;;5017676;28;20041;-80
2022/10/23 16:40:26;;;;;;;9.75;2.67;;;;;;;;;;5028748;28;20059;-80
2022/10/23 16:43:11;;;;;;;13.45;2.55;;;;;;;;;;5017832;28;20100;-79